Search for airport 
image banner adimage banner adimage banner ad
image banner ad

NV15 - Carson-Tahoe Rgnl Medical Center

Located in Carson City, United States

ICAO - NV15, IATA -

Data provided by Airmate  

General information

Coordinates: N39°12'8" W119°47'5"
Elevation is 4850 feet MSL.
 
View others Airports in Nevada

Operational data

Special qualification required
Current time UTC:
Current local time:
Weather at : KCXP - Carson ( 5 km )
METAR: KCXP 092255Z AUTO VRB04KT 10SM CLR 22/M09 A2995 RMK AO2
TAF: KCXP 091720Z 0918/1018 VRB05KT P6SM SKC FM092200 32010G18KT P6SM SCT100 FM100600 34014G23KT P6SM SKC FM101300 35008KT P6SM SKC
View NOTAMs / SUP AIP / TFR affecting this airport [VIEW]
Communications frequencies: [VIEW]

Runways:

Airport contact information

Address: Carson City United States

Satellite view of NV15